Raleigh, North Dakota
Current Conditions -  °F | °C
As of 4:15 PM on Tuesday 25 Nov 2014 (Local Time) from KY19 Reporting Station
Overcast Overcast  
Wind Chill: 26°   Ceiling: 1700
Heat Index: 32°   Visibility: 10mi
Dew Point: 32°   Wind: 7mph
Humidity: 100%   Direction: 270°W
Pressure: 29.71"   Gusts: NA
Location:  46.36°N, 101.31°W
Report Text: KY19 252315Z AUTO 27006KT 10SM OVC017 00/00 A2971 RMK AO2
Loading
Personal Weather Stations






























Interactive Weather Map New forecast layout! Learn more

10-Day Weather Forecast

Advertisements
Track Severe Weather on mobile